sensor_id;sensor_type;location;lat;lon;timestamp;P1;durP1;ratioP1;P2;durP2;ratioP2
27684;SDS011;46113;50.130;8.526;2022-08-01T04:17:03;3.35;;;0.88;;
27684;SDS011;46113;50.130;8.526;2022-08-01T04:19:30;2.13;;;0.75;;
27684;SDS011;46113;50.130;8.526;2022-08-01T04:21:57;2.72;;;0.80;;
27684;SDS011;46113;50.130;8.526;2022-08-01T04:24:24;0.98;;;0.80;;
27684;SDS011;46113;50.130;8.526;2022-08-01T04:26:53;1.30;;;1.13;;
27684;SDS011;46113;50.130;8.526;2022-08-01T04:29:20;0.60;;;0.60;;
27684;SDS011;46113;50.130;8.526;2022-08-01T04:31:49;2.17;;;0.93;;
27684;SDS011;46113;50.130;8.526;2022-08-01T04:34:20;3.28;;;0.80;;
27684;SDS011;46113;50.130;8.526;2022-08-01T04:36:49;1.55;;;0.70;;
27684;SDS011;46113;50.130;8.526;2022-08-01T04:39:18;1.63;;;0.80;;
27684;SDS011;46113;50.130;8.526;2022-08-01T04:41:46;2.40;;;1.13;;
27684;SDS011;46113;50.130;8.526;2022-08-01T04:44:14;2.60;;;1.08;;
27684;SDS011;46113;50.130;8.526;2022-08-01T04:46:40;1.15;;;0.68;;
27684;SDS011;46113;50.130;8.526;2022-08-01T04:49:08;2.65;;;0.98;;
27684;SDS011;46113;50.130;8.526;2022-08-01T04:51:35;4.72;;;0.65;;
27684;SDS011;46113;50.130;8.526;2022-08-01T04:54:02;1.02;;;0.93;;
27684;SDS011;46113;50.130;8.526;2022-08-01T04:56:28;5.60;;;0.77;;
27684;SDS011;46113;50.130;8.526;2022-08-01T04:58:55;5.60;;;1.23;;
27684;SDS011;46113;50.130;8.526;2022-08-01T05:01:48;2.05;;;0.95;;
27684;SDS011;46113;50.130;8.526;2022-08-01T05:04:15;1.30;;;0.55;;
27684;SDS011;46113;50.130;8.526;2022-08-01T05:06:41;1.75;;;0.95;;
27684;SDS011;46113;50.130;8.526;2022-08-01T05:09:09;1.38;;;0.80;;
27684;SDS011;46113;50.130;8.526;2022-08-01T05:11:36;0.80;;;0.60;;
27684;SDS011;46113;50.130;8.526;2022-08-01T05:16:37;1.48;;;0.88;;
27684;SDS011;46113;50.130;8.526;2022-08-01T05:19:04;4.80;;;0.90;;
27684;SDS011;46113;50.130;8.526;2022-08-01T05:21:31;1.50;;;0.70;;
27684;SDS011;46113;50.130;8.526;2022-08-01T05:23:58;0.80;;;0.75;;
27684;SDS011;46113;50.130;8.526;2022-08-01T05:26:24;1.02;;;0.80;;
27684;SDS011;46113;50.130;8.526;2022-08-01T05:28:51;1.83;;;0.80;;
27684;SDS011;46113;50.130;8.526;2022-08-01T05:31:18;1.38;;;0.65;;
27684;SDS011;46113;50.130;8.526;2022-08-01T05:33:45;0.88;;;0.88;;
27684;SDS011;46113;50.130;8.526;2022-08-01T05:36:11;0.80;;;0.80;;
27684;SDS011;46113;50.130;8.526;2022-08-01T05:38:38;2.65;;;0.70;;
27684;SDS011;46113;50.130;8.526;2022-08-01T05:41:04;1.60;;;0.80;;
27684;SDS011;46113;50.130;8.526;2022-08-01T05:43:31;2.28;;;1.35;;
27684;SDS011;46113;50.130;8.526;2022-08-01T05:45:57;1.27;;;1.00;;
27684;SDS011;46113;50.130;8.526;2022-08-01T05:48:24;1.88;;;1.20;;
27684;SDS011;46113;50.130;8.526;2022-08-01T05:50:51;1.55;;;1.30;;
27684;SDS011;46113;50.130;8.526;2022-08-01T05:53:23;1.20;;;1.10;;
27684;SDS011;46113;50.130;8.526;2022-08-01T05:55:50;0.98;;;0.93;;
27684;SDS011;46113;50.130;8.526;2022-08-01T05:58:16;0.98;;;0.98;;
27684;SDS011;46113;50.130;8.526;2022-08-01T06:00:43;1.35;;;1.20;;
27684;SDS011;46113;50.130;8.526;2022-08-01T06:03:09;1.98;;;1.00;;
27684;SDS011;46113;50.130;8.526;2022-08-01T06:05:39;3.20;;;1.00;;
27684;SDS011;46113;50.130;8.526;2022-08-01T06:08:07;1.33;;;1.10;;
27684;SDS011;46113;50.130;8.526;2022-08-01T06:10:34;1.77;;;1.10;;
27684;SDS011;46113;50.130;8.526;2022-08-01T06:13:00;1.00;;;0.90;;
27684;SDS011;46113;50.130;8.526;2022-08-01T06:15:30;3.03;;;1.27;;
27684;SDS011;46113;50.130;8.526;2022-08-01T06:17:58;1.45;;;1.02;;
27684;SDS011;46113;50.130;8.526;2022-08-01T06:20:25;1.33;;;1.08;;
27684;SDS011;46113;50.130;8.526;2022-08-01T06:22:53;2.13;;;1.17;;
27684;SDS011;46113;50.130;8.526;2022-08-01T06:25:21;1.40;;;1.17;;
27684;SDS011;46113;50.130;8.526;2022-08-01T06:27:48;0.95;;;0.70;;
27684;SDS011;46113;50.130;8.526;2022-08-01T06:30:16;0.80;;;0.80;;
27684;SDS011;46113;50.130;8.526;2022-08-01T06:32:43;3.22;;;1.08;;
27684;SDS011;46113;50.130;8.526;2022-08-01T06:35:10;1.48;;;1.10;;
27684;SDS011;46113;50.130;8.526;2022-08-01T06:37:37;1.20;;;1.10;;
27684;SDS011;46113;50.130;8.526;2022-08-01T06:40:04;4.00;;;1.58;;
27684;SDS011;46113;50.130;8.526;2022-08-01T06:42:38;1.88;;;1.55;;
27684;SDS011;46113;50.130;8.526;2022-08-01T06:45:06;4.20;;;2.30;;
27684;SDS011;46113;50.130;8.526;2022-08-01T06:47:38;2.88;;;2.50;;
27684;SDS011;46113;50.130;8.526;2022-08-01T06:50:06;2.90;;;2.58;;
27684;SDS011;46113;50.130;8.526;2022-08-01T06:52:36;4.78;;;3.00;;
27684;SDS011;46113;50.130;8.526;2022-08-01T06:55:04;3.50;;;2.67;;
27684;SDS011;46113;50.130;8.526;2022-08-01T06:57:31;6.18;;;3.25;;
27684;SDS011;46113;50.130;8.526;2022-08-01T07:00:00;3.10;;;2.80;;
27684;SDS011;46113;50.130;8.526;2022-08-01T07:02:37;6.75;;;2.80;;
27684;SDS011;46113;50.130;8.526;2022-08-01T07:05:03;4.82;;;2.90;;
27684;SDS011;46113;50.130;8.526;2022-08-01T07:07:30;3.70;;;2.40;;
27684;SDS011;46113;50.130;8.526;2022-08-01T07:09:57;3.85;;;2.50;;
27684;SDS011;46113;50.130;8.526;2022-08-01T07:12:24;3.60;;;2.75;;
27684;SDS011;46113;50.130;8.526;2022-08-01T07:14:50;3.20;;;2.75;;
27684;SDS011;46113;50.130;8.526;2022-08-01T07:17:22;3.40;;;3.05;;
27684;SDS011;46113;50.130;8.526;2022-08-01T07:19:54;4.15;;;3.00;;
27684;SDS011;46113;50.130;8.526;2022-08-01T07:22:23;3.28;;;2.47;;
27684;SDS011;46113;50.130;8.526;2022-08-01T07:24:49;2.22;;;2.13;;
27684;SDS011;46113;50.130;8.526;2022-08-01T07:27:20;3.50;;;2.55;;
27684;SDS011;46113;50.130;8.526;2022-08-01T07:29:51;2.63;;;2.42;;
27684;SDS011;46113;50.130;8.526;2022-08-01T07:32:22;2.50;;;2.30;;
27684;SDS011;46113;50.130;8.526;2022-08-01T07:34:48;3.20;;;2.60;;
27684;SDS011;46113;50.130;8.526;2022-08-01T07:37:15;2.67;;;2.47;;
27684;SDS011;46113;50.130;8.526;2022-08-01T07:40:08;6.53;;;3.05;;
27684;SDS011;46113;50.130;8.526;2022-08-01T07:42:36;2.95;;;2.45;;
27684;SDS011;46113;50.130;8.526;2022-08-01T07:45:05;4.72;;;2.63;;
27684;SDS011;46113;50.130;8.526;2022-08-01T07:50:20;3.63;;;3.30;;
27684;SDS011;46113;50.130;8.526;2022-08-01T07:52:47;3.28;;;2.80;;
27684;SDS011;46113;50.130;8.526;2022-08-01T07:55:20;3.50;;;2.85;;
27684;SDS011;46113;50.130;8.526;2022-08-01T07:57:53;6.60;;;3.70;;
27684;SDS011;46113;50.130;8.526;2022-08-01T08:00:19;3.92;;;3.63;;
27684;SDS011;46113;50.130;8.526;2022-08-01T08:14:41;4.53;;;3.30;;
27684;SDS011;46113;50.130;8.526;2022-08-01T08:17:25;3.97;;;3.17;;
27684;SDS011;46113;50.130;8.526;2022-08-01T08:19:52;3.72;;;3.30;;
27684;SDS011;46113;50.130;8.526;2022-08-01T08:22:37;5.68;;;3.50;;
27684;SDS011;46113;50.130;8.526;2022-08-01T08:25:04;3.70;;;3.30;;
27684;SDS011;46113;50.130;8.526;2022-08-01T08:27:33;3.42;;;3.15;;
27684;SDS011;46113;50.130;8.526;2022-08-01T08:32:54;4.25;;;2.83;;
27684;SDS011;46113;50.130;8.526;2022-08-01T08:35:21;4.20;;;2.92;;
27684;SDS011;46113;50.130;8.526;2022-08-01T08:38:08;3.45;;;3.15;;
27684;SDS011;46113;50.130;8.526;2022-08-01T08:40:36;3.67;;;3.30;;
27684;SDS011;46113;50.130;8.526;2022-08-01T08:43:05;6.75;;;2.95;;
27684;SDS011;46113;50.130;8.526;2022-08-01T08:45:33;5.15;;;3.45;;
27684;SDS011;46113;50.130;8.526;2022-08-01T08:48:23;4.60;;;3.45;;
27684;SDS011;46113;50.130;8.526;2022-08-01T08:53:46;3.17;;;2.70;;
27684;SDS011;46113;50.130;8.526;2022-08-01T08:56:13;3.63;;;2.83;;
27684;SDS011;46113;50.130;8.526;2022-08-01T09:01:34;7.05;;;2.50;;
27684;SDS011;46113;50.130;8.526;2022-08-01T09:04:03;4.07;;;2.38;;
27684;SDS011;46113;50.130;8.526;2022-08-01T09:06:44;2.85;;;2.65;;
27684;SDS011;46113;50.130;8.526;2022-08-01T09:15:40;2.72;;;2.53;;
27684;SDS011;46113;50.130;8.526;2022-08-01T09:22:01;2.28;;;2.08;;
27684;SDS011;46113;50.130;8.526;2022-08-01T09:24:37;2.13;;;1.92;;
27684;SDS011;46113;50.130;8.526;2022-08-01T09:27:15;2.45;;;2.25;;
27684;SDS011;46113;50.130;8.526;2022-08-01T09:35:58;1.95;;;1.75;;
27684;SDS011;46113;50.130;8.526;2022-08-01T09:41:47;2.47;;;1.67;;
27684;SDS011;46113;50.130;8.526;2022-08-01T09:44:19;2.58;;;2.15;;
27684;SDS011;46113;50.130;8.526;2022-08-01T09:58:48;2.35;;;1.85;;
27684;SDS011;46113;50.130;8.526;2022-08-01T10:04:19;2.83;;;2.55;;
27684;SDS011;46113;50.130;8.526;2022-08-01T10:07:03;4.07;;;1.90;;
27684;SDS011;46113;50.130;8.526;2022-08-01T10:09:34;3.30;;;2.65;;
27684;SDS011;46113;50.130;8.526;2022-08-01T10:12:12;2.00;;;1.80;;
27684;SDS011;46113;50.130;8.526;2022-08-01T10:24:49;3.30;;;1.92;;
27684;SDS011;46113;50.130;8.526;2022-08-01T10:27:21;2.67;;;2.30;;
27684;SDS011;46113;50.130;8.526;2022-08-01T10:30:11;3.55;;;2.67;;
27684;SDS011;46113;50.130;8.526;2022-08-01T10:32:49;3.45;;;1.85;;
27684;SDS011;46113;50.130;8.526;2022-08-01T10:35:20;2.83;;;2.22;;
27684;SDS011;46113;50.130;8.526;2022-08-01T10:38:11;2.55;;;2.35;;
27684;SDS011;46113;50.130;8.526;2022-08-01T10:40:39;2.57;;;2.37;;
27684;SDS011;46113;50.130;8.526;2022-08-01T10:43:08;2.47;;;2.28;;
27684;SDS011;46113;50.130;8.526;2022-08-01T10:45:37;2.65;;;2.03;;
27684;SDS011;46113;50.130;8.526;2022-08-01T10:50:48;2.25;;;2.10;;
27684;SDS011;46113;50.130;8.526;2022-08-01T10:53:22;5.47;;;2.08;;
27684;SDS011;46113;50.130;8.526;2022-08-01T10:56:07;2.45;;;2.25;;
27684;SDS011;46113;50.130;8.526;2022-08-01T10:58:38;2.33;;;2.13;;
27684;SDS011;46113;50.130;8.526;2022-08-01T11:03:40;2.17;;;1.88;;
27684;SDS011;46113;50.130;8.526;2022-08-01T11:06:28;2.55;;;2.35;;
27684;SDS011;46113;50.130;8.526;2022-08-01T11:09:29;1.98;;;1.75;;
27684;SDS011;46113;50.130;8.526;2022-08-01T11:12:04;1.92;;;1.83;;
27684;SDS011;46113;50.130;8.526;2022-08-01T11:26:13;2.75;;;2.42;;
27684;SDS011;46113;50.130;8.526;2022-08-01T11:29:15;2.33;;;1.70;;
27684;SDS011;46113;50.130;8.526;2022-08-01T11:31:47;1.77;;;1.67;;
27684;SDS011;46113;50.130;8.526;2022-08-01T11:34:15;3.13;;;2.15;;
27684;SDS011;46113;50.130;8.526;2022-08-01T11:46:01;3.70;;;2.03;;
27684;SDS011;46113;50.130;8.526;2022-08-01T11:48:26;2.63;;;1.85;;
27684;SDS011;46113;50.130;8.526;2022-08-01T11:50:55;2.80;;;1.70;;
27684;SDS011;46113;50.130;8.526;2022-08-01T11:56:31;4.68;;;1.60;;
27684;SDS011;46113;50.130;8.526;2022-08-01T12:05:34;1.58;;;1.48;;
27684;SDS011;46113;50.130;8.526;2022-08-01T12:08:11;1.88;;;1.52;;
27684;SDS011;46113;50.130;8.526;2022-08-01T12:10:38;1.85;;;1.27;;
27684;SDS011;46113;50.130;8.526;2022-08-01T12:13:16;1.95;;;1.58;;
27684;SDS011;46113;50.130;8.526;2022-08-01T12:15:49;2.60;;;1.50;;
27684;SDS011;46113;50.130;8.526;2022-08-01T12:18:22;1.30;;;1.20;;
27684;SDS011;46113;50.130;8.526;2022-08-01T12:21:30;1.77;;;1.67;;
27684;SDS011;46113;50.130;8.526;2022-08-01T12:24:26;1.85;;;1.52;;
27684;SDS011;46113;50.130;8.526;2022-08-01T12:26:57;2.42;;;1.80;;
27684;SDS011;46113;50.130;8.526;2022-08-01T12:35:52;5.10;;;1.35;;
27684;SDS011;46113;50.130;8.526;2022-08-01T12:41:56;3.70;;;1.45;;
27684;SDS011;46113;50.130;8.526;2022-08-01T12:47:23;1.55;;;1.45;;
27684;SDS011;46113;50.130;8.526;2022-08-01T12:49:50;1.50;;;1.40;;
27684;SDS011;46113;50.130;8.526;2022-08-01T12:52:17;2.65;;;1.42;;
27684;SDS011;46113;50.130;8.526;2022-08-01T12:57:35;2.25;;;1.10;;
27684;SDS011;46113;50.130;8.526;2022-08-01T13:04:22;4.13;;;1.20;;
27684;SDS011;46113;50.130;8.526;2022-08-01T13:06:52;1.17;;;1.17;;
27684;SDS011;46113;50.130;8.526;2022-08-01T13:12:07;1.10;;;1.00;;
27684;SDS011;46113;50.130;8.526;2022-08-01T13:14:39;1.35;;;0.93;;
27684;SDS011;46113;50.130;8.526;2022-08-01T13:17:07;1.38;;;1.27;;
27684;SDS011;46113;50.130;8.526;2022-08-01T13:19:42;4.35;;;2.30;;
27684;SDS011;46113;50.130;8.526;2022-08-01T13:22:09;1.75;;;1.20;;
27684;SDS011;46113;50.130;8.526;2022-08-01T13:24:36;1.52;;;1.42;;
27684;SDS011;46113;50.130;8.526;2022-08-01T13:27:04;1.33;;;1.23;;
27684;SDS011;46113;50.130;8.526;2022-08-01T13:29:37;2.80;;;1.48;;
27684;SDS011;46113;50.130;8.526;2022-08-01T13:35:05;2.20;;;1.40;;
27684;SDS011;46113;50.130;8.526;2022-08-01T13:37:34;1.33;;;1.15;;
27684;SDS011;46113;50.130;8.526;2022-08-01T13:40:02;1.50;;;1.40;;
27684;SDS011;46113;50.130;8.526;2022-08-01T13:42:30;2.88;;;1.85;;
27684;SDS011;46113;50.130;8.526;2022-08-01T13:45:13;3.78;;;1.30;;
27684;SDS011;46113;50.130;8.526;2022-08-01T13:47:48;1.02;;;1.02;;
27684;SDS011;46113;50.130;8.526;2022-08-01T13:50:57;4.00;;;0.80;;
27684;SDS011;46113;50.130;8.526;2022-08-01T13:53:44;4.93;;;1.27;;
27684;SDS011;46113;50.130;8.526;2022-08-01T13:56:29;1.40;;;1.17;;
27684;SDS011;46113;50.130;8.526;2022-08-01T13:58:56;4.53;;;1.33;;
27684;SDS011;46113;50.130;8.526;2022-08-01T14:01:25;2.95;;;1.40;;
27684;SDS011;46113;50.130;8.526;2022-08-01T14:04:04;4.78;;;1.40;;
27684;SDS011;46113;50.130;8.526;2022-08-01T14:06:35;1.63;;;1.40;;
27684;SDS011;46113;50.130;8.526;2022-08-01T14:09:03;2.15;;;1.23;;
27684;SDS011;46113;50.130;8.526;2022-08-01T14:11:43;1.80;;;1.30;;
27684;SDS011;46113;50.130;8.526;2022-08-01T14:14:11;1.80;;;1.42;;
27684;SDS011;46113;50.130;8.526;2022-08-01T14:16:39;2.40;;;1.30;;
27684;SDS011;46113;50.130;8.526;2022-08-01T14:19:13;1.30;;;1.05;;
27684;SDS011;46113;50.130;8.526;2022-08-01T14:21:42;2.08;;;1.50;;
27684;SDS011;46113;50.130;8.526;2022-08-01T14:24:09;2.72;;;1.50;;
27684;SDS011;46113;50.130;8.526;2022-08-01T14:26:47;1.90;;;1.67;;
27684;SDS011;46113;50.130;8.526;2022-08-01T14:29:14;1.75;;;1.65;;
27684;SDS011;46113;50.130;8.526;2022-08-01T14:31:41;2.38;;;1.40;;
27684;SDS011;46113;50.130;8.526;2022-08-01T14:34:08;2.40;;;1.67;;
27684;SDS011;46113;50.130;8.526;2022-08-01T14:36:35;3.33;;;1.55;;
27684;SDS011;46113;50.130;8.526;2022-08-01T14:39:07;1.92;;;1.70;;
27684;SDS011;46113;50.130;8.526;2022-08-01T14:41:53;2.28;;;1.80;;
27684;SDS011;46113;50.130;8.526;2022-08-01T14:44:21;1.63;;;1.50;;
27684;SDS011;46113;50.130;8.526;2022-08-01T14:46:53;2.05;;;1.48;;
27684;SDS011;46113;50.130;8.526;2022-08-01T14:49:23;1.30;;;1.20;;
27684;SDS011;46113;50.130;8.526;2022-08-01T14:51:50;4.13;;;1.50;;
27684;SDS011;46113;50.130;8.526;2022-08-01T14:54:16;2.33;;;1.60;;
27684;SDS011;46113;50.130;8.526;2022-08-01T14:56:52;1.40;;;1.30;;
27684;SDS011;46113;50.130;8.526;2022-08-01T14:59:19;2.10;;;1.67;;
27684;SDS011;46113;50.130;8.526;2022-08-01T15:01:47;2.05;;;1.83;;
27684;SDS011;46113;50.130;8.526;2022-08-01T15:04:14;2.17;;;1.90;;
27684;SDS011;46113;50.130;8.526;2022-08-01T15:06:40;3.35;;;2.17;;
27684;SDS011;46113;50.130;8.526;2022-08-01T15:09:07;6.25;;;2.38;;
27684;SDS011;46113;50.130;8.526;2022-08-01T15:11:34;1.92;;;1.63;;
27684;SDS011;46113;50.130;8.526;2022-08-01T15:14:02;2.13;;;1.83;;
27684;SDS011;46113;50.130;8.526;2022-08-01T15:26:27;1.48;;;1.38;;
27684;SDS011;46113;50.130;8.526;2022-08-01T15:28:56;3.45;;;1.98;;
27684;SDS011;46113;50.130;8.526;2022-08-01T15:34:56;1.98;;;1.75;;
27684;SDS011;46113;50.130;8.526;2022-08-01T15:37:25;1.65;;;1.38;;
27684;SDS011;46113;50.130;8.526;2022-08-01T15:39:51;1.50;;;1.38;;
27684;SDS011;46113;50.130;8.526;2022-08-01T15:42:22;1.45;;;1.35;;
27684;SDS011;46113;50.130;8.526;2022-08-01T15:44:52;1.85;;;1.60;;
27684;SDS011;46113;50.130;8.526;2022-08-01T15:47:22;1.50;;;1.40;;
27684;SDS011;46113;50.130;8.526;2022-08-01T15:49:50;2.55;;;1.52;;
27684;SDS011;46113;50.130;8.526;2022-08-01T15:52:18;1.40;;;1.30;;
27684;SDS011;46113;50.130;8.526;2022-08-01T15:54:48;1.40;;;1.30;;
27684;SDS011;46113;50.130;8.526;2022-08-01T15:57:15;1.55;;;1.45;;
27684;SDS011;46113;50.130;8.526;2022-08-01T15:59:51;1.70;;;1.60;;
27684;SDS011;46113;50.130;8.526;2022-08-01T16:02:17;1.10;;;1.00;;
27684;SDS011;46113;50.130;8.526;2022-08-01T16:04:44;2.55;;;1.58;;
27684;SDS011;46113;50.130;8.526;2022-08-01T16:07:11;1.40;;;1.20;;
27684;SDS011;46113;50.130;8.526;2022-08-01T16:09:38;1.35;;;1.25;;
27684;SDS011;46113;50.130;8.526;2022-08-01T16:12:05;1.60;;;1.50;;
27684;SDS011;46113;50.130;8.526;2022-08-01T16:14:33;1.50;;;1.40;;
27684;SDS011;46113;50.130;8.526;2022-08-01T16:17:00;2.70;;;1.20;;
27684;SDS011;46113;50.130;8.526;2022-08-01T16:19:26;1.67;;;1.55;;
27684;SDS011;46113;50.130;8.526;2022-08-01T16:24:45;1.52;;;1.42;;
27684;SDS011;46113;50.130;8.526;2022-08-01T16:27:13;1.50;;;1.40;;
27684;SDS011;46113;50.130;8.526;2022-08-01T16:29:39;3.53;;;1.65;;
27684;SDS011;46113;50.130;8.526;2022-08-01T16:32:06;1.83;;;1.73;;
27684;SDS011;46113;50.130;8.526;2022-08-01T16:34:53;2.05;;;1.52;;
27684;SDS011;46113;50.130;8.526;2022-08-01T16:37:19;1.67;;;1.58;;
27684;SDS011;46113;50.130;8.526;2022-08-01T16:39:46;1.48;;;1.38;;
27684;SDS011;46113;50.130;8.526;2022-08-01T16:42:25;1.85;;;1.75;;
27684;SDS011;46113;50.130;8.526;2022-08-01T16:44:53;1.50;;;1.40;;
27684;SDS011;46113;50.130;8.526;2022-08-01T16:47:19;1.52;;;1.42;;
27684;SDS011;46113;50.130;8.526;2022-08-01T16:49:53;2.42;;;1.65;;
27684;SDS011;46113;50.130;8.526;2022-08-01T16:52:20;1.52;;;1.40;;
27684;SDS011;46113;50.130;8.526;2022-08-01T16:54:53;4.13;;;1.80;;
27684;SDS011;46113;50.130;8.526;2022-08-01T16:57:22;2.17;;;1.80;;
27684;SDS011;46113;50.130;8.526;2022-08-01T16:59:49;3.95;;;1.95;;
27684;SDS011;46113;50.130;8.526;2022-08-01T17:02:15;2.03;;;1.50;;
27684;SDS011;46113;50.130;8.526;2022-08-01T17:04:42;2.60;;;1.23;;
27684;SDS011;46113;50.130;8.526;2022-08-01T17:07:12;2.58;;;2.38;;
27684;SDS011;46113;50.130;8.526;2022-08-01T17:09:38;5.95;;;1.60;;
27684;SDS011;46113;50.130;8.526;2022-08-01T17:12:09;2.00;;;1.90;;
27684;SDS011;46113;50.130;8.526;2022-08-01T17:14:37;4.82;;;1.30;;
27684;SDS011;46113;50.130;8.526;2022-08-01T17:17:05;1.33;;;1.20;;
27684;SDS011;46113;50.130;8.526;2022-08-01T17:19:32;1.48;;;1.38;;
27684;SDS011;46113;50.130;8.526;2022-08-01T17:21:59;3.55;;;1.60;;
27684;SDS011;46113;50.130;8.526;2022-08-01T17:24:26;1.67;;;1.58;;
27684;SDS011;46113;50.130;8.526;2022-08-01T17:26:53;1.65;;;1.52;;
27684;SDS011;46113;50.130;8.526;2022-08-01T17:29:19;2.67;;;2.00;;
27684;SDS011;46113;50.130;8.526;2022-08-01T17:31:46;3.38;;;2.03;;
27684;SDS011;46113;50.130;8.526;2022-08-01T17:34:12;2.80;;;1.70;;
27684;SDS011;46113;50.130;8.526;2022-08-01T17:36:39;1.90;;;1.52;;
27684;SDS011;46113;50.130;8.526;2022-08-01T17:39:06;1.42;;;1.33;;
27684;SDS011;46113;50.130;8.526;2022-08-01T17:41:34;2.17;;;1.38;;
27684;SDS011;46113;50.130;8.526;2022-08-01T17:44:00;2.95;;;1.55;;
27684;SDS011;46113;50.130;8.526;2022-08-01T17:46:27;1.50;;;1.35;;
27684;SDS011;46113;50.130;8.526;2022-08-01T17:48:57;1.40;;;1.15;;
27684;SDS011;46113;50.130;8.526;2022-08-01T17:51:25;1.27;;;1.17;;
27684;SDS011;46113;50.130;8.526;2022-08-01T17:53:52;1.58;;;1.48;;
27684;SDS011;46113;50.130;8.526;2022-08-01T17:56:23;1.90;;;1.70;;
27684;SDS011;46113;50.130;8.526;2022-08-01T17:58:52;1.50;;;1.40;;
27684;SDS011;46113;50.130;8.526;2022-08-01T18:01:19;1.95;;;1.75;;
27684;SDS011;46113;50.130;8.526;2022-08-01T18:03:46;1.63;;;1.52;;
27684;SDS011;46113;50.130;8.526;2022-08-01T18:06:13;1.45;;;1.35;;
27684;SDS011;46113;50.130;8.526;2022-08-01T18:08:45;1.65;;;1.55;;
27684;SDS011;46113;50.130;8.526;2022-08-01T18:11:13;2.83;;;1.80;;
27684;SDS011;46113;50.130;8.526;2022-08-01T18:13:41;1.83;;;1.73;;
27684;SDS011;46113;50.130;8.526;2022-08-01T18:16:08;2.17;;;1.80;;
27684;SDS011;46113;50.130;8.526;2022-08-01T18:18:38;3.60;;;1.83;;
27684;SDS011;46113;50.130;8.526;2022-08-01T18:21:06;4.43;;;1.90;;
27684;SDS011;46113;50.130;8.526;2022-08-01T18:23:33;3.97;;;1.75;;
27684;SDS011;46113;50.130;8.526;2022-08-01T18:26:00;1.70;;;1.60;;
27684;SDS011;46113;50.130;8.526;2022-08-01T18:28:31;3.25;;;2.05;;
27684;SDS011;46113;50.130;8.526;2022-08-01T18:31:07;2.30;;;1.73;;
27684;SDS011;46113;50.130;8.526;2022-08-01T18:33:37;1.60;;;1.50;;
27684;SDS011;46113;50.130;8.526;2022-08-01T18:36:03;2.95;;;2.00;;
27684;SDS011;46113;50.130;8.526;2022-08-01T18:38:53;2.08;;;1.70;;
27684;SDS011;46113;50.130;8.526;2022-08-01T18:41:21;2.72;;;1.90;;
27684;SDS011;46113;50.130;8.526;2022-08-01T18:43:48;3.20;;;1.63;;
27684;SDS011;46113;50.130;8.526;2022-08-01T18:46:15;2.22;;;2.08;;
27684;SDS011;46113;50.130;8.526;2022-08-01T18:48:41;1.88;;;1.77;;
27684;SDS011;46113;50.130;8.526;2022-08-01T18:51:08;2.05;;;1.65;;
27684;SDS011;46113;50.130;8.526;2022-08-01T18:53:37;2.10;;;1.90;;
27684;SDS011;46113;50.130;8.526;2022-08-01T18:56:22;2.38;;;2.17;;
27684;SDS011;46113;50.130;8.526;2022-08-01T18:58:49;2.45;;;2.28;;
27684;SDS011;46113;50.130;8.526;2022-08-01T19:01:15;2.47;;;2.28;;
27684;SDS011;46113;50.130;8.526;2022-08-01T19:03:44;2.70;;;2.50;;
27684;SDS011;46113;50.130;8.526;2022-08-01T19:06:10;2.58;;;2.38;;
27684;SDS011;46113;50.130;8.526;2022-08-01T19:08:37;1.63;;;1.52;;
27684;SDS011;46113;50.130;8.526;2022-08-01T19:11:05;2.22;;;1.65;;
27684;SDS011;46113;50.130;8.526;2022-08-01T19:13:32;2.22;;;1.75;;
27684;SDS011;46113;50.130;8.526;2022-08-01T19:16:02;2.97;;;1.65;;
27684;SDS011;46113;50.130;8.526;2022-08-01T19:18:29;2.10;;;1.90;;
27684;SDS011;46113;50.130;8.526;2022-08-01T19:20:56;2.00;;;1.90;;
27684;SDS011;46113;50.130;8.526;2022-08-01T19:23:23;1.73;;;1.63;;
27684;SDS011;46113;50.130;8.526;2022-08-01T19:26:09;2.22;;;1.80;;
27684;SDS011;46113;50.130;8.526;2022-08-01T19:28:43;2.55;;;1.83;;
27684;SDS011;46113;50.130;8.526;2022-08-01T19:31:15;2.47;;;1.75;;
27684;SDS011;46113;50.130;8.526;2022-08-01T19:33:54;2.08;;;1.98;;
27684;SDS011;46113;50.130;8.526;2022-08-01T19:36:22;1.90;;;1.80;;
27684;SDS011;46113;50.130;8.526;2022-08-01T19:38:49;2.00;;;1.77;;
27684;SDS011;46113;50.130;8.526;2022-08-01T19:41:17;1.67;;;1.58;;
27684;SDS011;46113;50.130;8.526;2022-08-01T19:43:44;6.85;;;2.00;;
27684;SDS011;46113;50.130;8.526;2022-08-01T19:46:13;3.08;;;1.70;;
27684;SDS011;46113;50.130;8.526;2022-08-01T19:48:43;3.42;;;1.77;;
27684;SDS011;46113;50.130;8.526;2022-08-01T19:51:18;3.33;;;1.90;;
27684;SDS011;46113;50.130;8.526;2022-08-01T19:53:49;1.90;;;1.80;;
27684;SDS011;46113;50.130;8.526;2022-08-01T19:56:21;1.95;;;1.73;;
27684;SDS011;46113;50.130;8.526;2022-08-01T19:59:07;3.22;;;2.88;;
27684;SDS011;46113;50.130;8.526;2022-08-01T20:01:42;7.90;;;3.55;;
27684;SDS011;46113;50.130;8.526;2022-08-01T20:04:13;2.50;;;2.20;;
27684;SDS011;46113;50.130;8.526;2022-08-01T20:06:41;1.88;;;1.67;;
27684;SDS011;46113;50.130;8.526;2022-08-01T20:09:08;1.98;;;1.70;;
27684;SDS011;46113;50.130;8.526;2022-08-01T20:11:44;2.47;;;1.63;;
27684;SDS011;46113;50.130;8.526;2022-08-01T20:14:12;1.42;;;1.33;;
27684;SDS011;46113;50.130;8.526;2022-08-01T20:16:45;1.42;;;1.33;;
27684;SDS011;46113;50.130;8.526;2022-08-01T20:19:13;1.67;;;1.58;;
27684;SDS011;46113;50.130;8.526;2022-08-01T20:21:45;1.95;;;1.52;;
27684;SDS011;46113;50.130;8.526;2022-08-01T20:24:31;2.92;;;1.80;;
27684;SDS011;46113;50.130;8.526;2022-08-01T20:27:07;2.40;;;1.67;;
27684;SDS011;46113;50.130;8.526;2022-08-01T20:29:35;1.88;;;1.42;;
27684;SDS011;46113;50.130;8.526;2022-08-01T20:32:02;1.40;;;1.30;;
27684;SDS011;46113;50.130;8.526;2022-08-01T20:34:29;2.65;;;1.67;;
27684;SDS011;46113;50.130;8.526;2022-08-01T20:37:07;2.13;;;1.50;;
27684;SDS011;46113;50.130;8.526;2022-08-01T20:39:39;2.40;;;1.90;;
27684;SDS011;46113;50.130;8.526;2022-08-01T20:42:09;3.65;;;1.67;;
27684;SDS011;46113;50.130;8.526;2022-08-01T20:44:39;1.52;;;1.42;;
27684;SDS011;46113;50.130;8.526;2022-08-01T20:47:07;2.90;;;1.40;;
27684;SDS011;46113;50.130;8.526;2022-08-01T20:49:35;2.72;;;2.17;;
27684;SDS011;46113;50.130;8.526;2022-08-01T20:52:03;7.60;;;5.22;;
27684;SDS011;46113;50.130;8.526;2022-08-01T20:54:40;3.60;;;2.92;;
27684;SDS011;46113;50.130;8.526;2022-08-01T20:57:21;2.90;;;2.20;;
27684;SDS011;46113;50.130;8.526;2022-08-01T20:59:53;2.05;;;1.58;;
27684;SDS011;46113;50.130;8.526;2022-08-01T21:02:36;1.42;;;1.17;;
27684;SDS011;46113;50.130;8.526;2022-08-01T21:05:23;2.38;;;1.42;;
27684;SDS011;46113;50.130;8.526;2022-08-01T21:10:41;1.47;;;1.07;;
27684;SDS011;46113;50.130;8.526;2022-08-01T21:13:13;1.30;;;1.15;;
27684;SDS011;46113;50.130;8.526;2022-08-01T21:15:51;2.20;;;1.05;;
27684;SDS011;46113;50.130;8.526;2022-08-01T21:18:55;1.40;;;1.30;;
27684;SDS011;46113;50.130;8.526;2022-08-01T21:22:30;1.23;;;1.15;;
27684;SDS011;46113;50.130;8.526;2022-08-01T21:24:59;2.85;;;1.23;;
27684;SDS011;46113;50.130;8.526;2022-08-01T21:27:33;1.20;;;1.00;;
27684;SDS011;46113;50.130;8.526;2022-08-01T21:30:05;1.40;;;1.25;;
27684;SDS011;46113;50.130;8.526;2022-08-01T21:32:34;1.25;;;1.00;;
27684;SDS011;46113;50.130;8.526;2022-08-01T21:35:02;3.97;;;1.23;;
27684;SDS011;46113;50.130;8.526;2022-08-01T21:37:41;1.92;;;1.35;;
27684;SDS011;46113;50.130;8.526;2022-08-01T21:40:08;3.65;;;1.38;;
27684;SDS011;46113;50.130;8.526;2022-08-01T21:42:36;1.13;;;1.02;;
27684;SDS011;46113;50.130;8.526;2022-08-01T21:45:04;1.92;;;1.08;;
27684;SDS011;46113;50.130;8.526;2022-08-01T21:47:32;2.03;;;1.17;;
27684;SDS011;46113;50.130;8.526;2022-08-01T21:50:00;1.08;;;1.00;;
27684;SDS011;46113;50.130;8.526;2022-08-01T21:52:33;4.43;;;1.67;;
